createdAt,value
2017-05-26T00:00:22.807Z,15.25
2017-05-26T00:02:50.374Z,16.22
2017-05-26T00:05:17.975Z,14.67
2017-05-26T00:07:46.337Z,15.00
2017-05-26T00:10:14.736Z,14.48
2017-05-26T00:12:42.232Z,17.02
2017-05-26T00:15:10.673Z,14.95
2017-05-26T00:17:38.205Z,14.70
2017-05-26T00:20:05.704Z,15.77
2017-05-26T00:22:33.512Z,15.10
2017-05-26T00:25:01.340Z,16.03
2017-05-26T00:27:29.923Z,15.57
2017-05-26T00:29:57.505Z,15.12
2017-05-26T00:32:25.079Z,14.85
2017-05-26T00:34:53.371Z,16.03
2017-05-26T00:37:20.875Z,15.73
2017-05-26T00:39:48.404Z,13.45
2017-05-26T00:42:16.292Z,14.88
2017-05-26T00:44:44.596Z,14.43
2017-05-26T00:47:12.163Z,14.88
2017-05-26T00:49:40.480Z,13.08
2017-05-26T00:52:08.015Z,15.97
2017-05-26T00:54:35.526Z,16.15
2017-05-26T00:57:03.412Z,16.03
2017-05-26T00:59:30.964Z,15.00
2017-05-26T01:01:59.325Z,16.22
2017-05-26T01:04:27.651Z,16.90
2017-05-26T01:06:55.945Z,16.48
2017-05-26T01:09:24.544Z,15.03
2017-05-26T01:11:52.805Z,15.35
2017-05-26T01:14:21.092Z,15.33
2017-05-26T01:16:48.886Z,16.85
2017-05-26T01:19:17.176Z,15.52
2017-05-26T01:21:44.782Z,16.67
2017-05-26T01:24:13.108Z,15.28
2017-05-26T01:26:40.674Z,15.18
2017-05-26T01:29:08.982Z,15.15
2017-05-26T01:31:37.092Z,15.30
2017-05-26T01:34:05.359Z,14.38
2017-05-26T01:36:33.655Z,15.07
2017-05-26T01:39:01.195Z,15.20
2017-05-26T01:41:29.528Z,15.87
2017-05-26T01:43:57.111Z,15.37
2017-05-26T01:46:25.377Z,14.72
2017-05-26T01:48:52.933Z,16.42
2017-05-26T01:51:20.477Z,16.70
2017-05-26T01:53:48.004Z,15.35
2017-05-26T01:56:15.584Z,14.80
2017-05-26T01:58:43.106Z,14.40
2017-05-26T02:01:11.371Z,14.73
2017-05-26T02:03:39.640Z,16.02
2017-05-26T02:06:07.213Z,15.20
2017-05-26T02:08:35.529Z,13.90
2017-05-26T02:11:03.055Z,15.18
2017-05-26T02:13:30.587Z,16.15
2017-05-26T02:15:58.900Z,14.57
2017-05-26T02:18:27.162Z,15.23
2017-05-26T02:20:55.463Z,13.77
2017-05-26T02:23:23.791Z,14.68
2017-05-26T02:25:52.083Z,15.18
2017-05-26T02:28:19.675Z,14.87
2017-05-26T02:30:47.179Z,14.10
2017-05-26T02:33:14.672Z,16.20
2017-05-26T02:35:42.988Z,15.50
2017-05-26T02:38:11.308Z,14.72
2017-05-26T02:40:39.940Z,15.93
2017-05-26T02:43:07.704Z,15.63
2017-05-26T02:45:35.229Z,16.97
2017-05-26T02:48:03.025Z,14.97
2017-05-26T02:50:30.575Z,14.80
2017-05-26T02:52:59.264Z,14.87
2017-05-26T02:55:27.584Z,15.12
2017-05-26T02:57:55.085Z,16.37
2017-05-26T03:00:22.652Z,16.12
2017-05-26T03:02:50.935Z,16.10
2017-05-26T03:05:18.791Z,16.12
2017-05-26T03:07:47.094Z,17.42
2017-05-26T03:10:14.593Z,17.48
2017-05-26T03:12:42.136Z,18.18
2017-05-26T03:15:09.643Z,19.88
2017-05-26T03:17:37.983Z,15.57
2017-05-26T03:20:06.318Z,15.32
2017-05-26T03:22:34.629Z,16.30
2017-05-26T03:25:02.133Z,14.43
2017-05-26T03:27:30.399Z,15.53
2017-05-26T03:29:57.976Z,15.87
2017-05-26T03:32:25.543Z,14.77
2017-05-26T03:34:53.112Z,15.90
2017-05-26T03:37:21.648Z,15.03
2017-05-26T03:39:49.516Z,15.13
2017-05-26T03:42:17.842Z,14.27
2017-05-26T03:44:45.338Z,13.28
2017-05-26T03:47:12.851Z,14.87
2017-05-26T03:49:40.716Z,13.58
2017-05-26T03:52:08.385Z,12.95
2017-05-26T03:54:35.924Z,13.43
2017-05-26T03:57:03.487Z,13.63
2017-05-26T03:59:32.133Z,14.95
2017-05-26T04:02:00.404Z,15.43
2017-05-26T04:04:28.035Z,14.92
2017-05-26T04:06:55.535Z,14.45
2017-05-26T04:09:23.866Z,13.98
2017-05-26T04:11:51.417Z,14.60
2017-05-26T04:14:18.941Z,13.55
2017-05-26T04:16:47.332Z,12.42
2017-05-26T04:19:14.841Z,12.10
2017-05-26T04:21:43.120Z,12.38
2017-05-26T04:24:11.416Z,16.30
2017-05-26T04:26:39.809Z,14.85
2017-05-26T04:29:08.103Z,13.28
2017-05-26T04:31:36.413Z,13.90
2017-05-26T04:34:04.709Z,14.88
2017-05-26T04:36:33.044Z,13.93
2017-05-26T04:39:00.556Z,13.93
2017-05-26T04:41:28.851Z,13.88
2017-05-26T04:43:57.170Z,14.33
2017-05-26T04:46:25.476Z,13.70
2017-05-26T04:48:53.007Z,13.27
2017-05-26T04:51:21.359Z,15.38
2017-05-26T04:53:49.144Z,13.90
2017-05-26T04:56:16.652Z,14.32
2017-05-26T04:58:44.378Z,13.73
2017-05-26T05:01:12.611Z,13.87
2017-05-26T05:03:40.136Z,14.97
2017-05-26T05:06:08.408Z,15.90
2017-05-26T05:08:36.233Z,14.13
2017-05-26T05:11:04.588Z,16.08
2017-05-26T05:13:32.100Z,15.28
2017-05-26T05:15:59.626Z,16.47
2017-05-26T05:18:27.923Z,15.55
2017-05-26T05:20:56.290Z,14.43
2017-05-26T05:23:24.877Z,13.33
2017-05-26T05:25:52.403Z,14.08
2017-05-26T05:28:20.995Z,16.15
2017-05-26T05:30:48.568Z,24.53
2017-05-26T05:33:16.860Z,22.63
2017-05-26T05:35:44.393Z,25.20
2017-05-26T05:38:12.183Z,23.83
2017-05-26T05:40:40.724Z,22.48
2017-05-26T05:43:09.028Z,23.33
2017-05-26T05:45:36.596Z,23.30
2017-05-26T05:48:04.100Z,21.98
2017-05-26T05:50:31.615Z,25.68
2017-05-26T05:52:59.900Z,23.00
2017-05-26T05:55:27.500Z,20.85
2017-05-26T05:57:55.774Z,22.52
2017-05-26T06:00:24.072Z,19.10
2017-05-26T06:02:52.344Z,21.12
2017-05-26T06:05:20.707Z,21.80
2017-05-26T06:07:48.256Z,20.88
2017-05-26T06:10:16.752Z,21.35
2017-05-26T06:12:44.607Z,20.25
2017-05-26T06:15:12.367Z,21.88
2017-05-26T06:17:40.663Z,19.05
2017-05-26T06:20:08.163Z,22.53
2017-05-26T06:22:35.667Z,20.90
2017-05-26T06:25:03.519Z,20.40
2017-05-26T06:27:31.820Z,19.57
2017-05-26T06:29:59.353Z,21.33
2017-05-26T06:32:28.538Z,20.90
2017-05-26T06:34:56.152Z,21.32
2017-05-26T06:37:23.737Z,23.13
2017-05-26T06:39:51.526Z,19.53
2017-05-26T06:42:19.337Z,17.57
2017-05-26T06:44:46.969Z,19.45
2017-05-26T06:47:14.471Z,19.45
2017-05-26T06:49:42.812Z,18.28
2017-05-26T06:52:10.544Z,16.08
2017-05-26T06:54:38.071Z,17.28
2017-05-26T06:57:05.579Z,17.15
2017-05-26T06:59:33.083Z,18.40
2017-05-26T07:02:00.611Z,16.63
2017-05-26T07:04:28.939Z,16.72
2017-05-26T07:06:57.279Z,17.93
2017-05-26T07:09:25.804Z,17.63
2017-05-26T07:11:53.312Z,16.40
2017-05-26T07:14:21.843Z,14.95
2017-05-26T07:16:50.119Z,16.22
2017-05-26T07:19:17.648Z,15.28
2017-05-26T07:21:45.947Z,15.90
2017-05-26T07:24:13.455Z,15.82
2017-05-26T07:26:41.957Z,14.83
2017-05-26T07:29:09.466Z,14.75
2017-05-26T07:31:37.781Z,12.93
2017-05-26T07:34:06.150Z,13.52
2017-05-26T07:36:33.684Z,14.07
2017-05-26T07:39:02.230Z,14.83
2017-05-26T07:41:30.024Z,14.18
2017-05-26T07:43:57.552Z,13.72
2017-05-26T07:46:25.841Z,13.33
2017-05-26T07:48:54.504Z,12.33
2017-05-26T07:51:22.788Z,12.13
2017-05-26T07:53:51.083Z,10.92
2017-05-26T07:56:19.356Z,12.07
2017-05-26T07:58:46.874Z,12.15
2017-05-26T08:01:15.230Z,12.23
2017-05-26T08:03:43.552Z,9.53
2017-05-26T08:06:11.107Z,11.17
2017-05-26T08:08:38.629Z,9.98
2017-05-26T08:11:06.252Z,10.30
2017-05-26T08:13:33.756Z,11.12
2017-05-26T08:16:02.077Z,12.18
2017-05-26T08:18:30.379Z,11.60
2017-05-26T08:20:58.180Z,11.15
2017-05-26T08:23:25.695Z,9.52
2017-05-26T08:25:53.199Z,11.03
2017-05-26T08:28:21.523Z,10.28
2017-05-26T08:30:49.814Z,11.57
2017-05-26T08:33:17.413Z,11.23
2017-05-26T08:35:45.263Z,9.25
2017-05-26T08:38:13.537Z,10.12
2017-05-26T08:40:41.128Z,10.10
2017-05-26T08:43:08.659Z,10.85
2017-05-26T08:45:36.524Z,11.38
2017-05-26T08:48:04.283Z,11.32
2017-05-26T08:50:32.638Z,9.65
2017-05-26T08:53:00.210Z,10.58
2017-05-26T08:55:27.747Z,11.18
2017-05-26T08:57:56.080Z,12.30
2017-05-26T09:00:23.587Z,11.83
2017-05-26T09:02:51.200Z,12.32
2017-05-26T09:05:18.771Z,10.18
2017-05-26T09:07:46.296Z,9.55
2017-05-26T09:10:14.631Z,9.92
2017-05-26T09:12:42.948Z,10.35
2017-05-26T09:15:10.502Z,9.75
2017-05-26T09:17:37.999Z,9.57
2017-05-26T09:20:05.544Z,10.42
2017-05-26T09:22:33.044Z,11.68
2017-05-26T09:25:00.767Z,10.52
2017-05-26T09:27:29.112Z,10.07
2017-05-26T09:29:57.383Z,11.72
2017-05-26T09:32:24.927Z,11.68
2017-05-26T09:34:52.494Z,12.48
2017-05-26T09:37:20.252Z,12.25
2017-05-26T09:39:48.526Z,14.60
2017-05-26T09:42:17.108Z,12.53
2017-05-26T09:44:44.628Z,14.30
2017-05-26T09:47:12.175Z,12.37
2017-05-26T09:49:40.720Z,14.00
2017-05-26T09:52:09.064Z,15.55
2017-05-26T09:54:36.620Z,17.28
2017-05-26T09:57:04.395Z,15.30
2017-05-26T09:59:32.159Z,19.33
2017-05-26T10:01:59.779Z,21.58
2017-05-26T10:04:27.300Z,18.72
2017-05-26T10:06:54.828Z,20.60
2017-05-26T10:09:22.352Z,19.48
2017-05-26T10:11:50.153Z,18.48
2017-05-26T10:14:17.711Z,21.10
2017-05-26T10:16:45.221Z,19.53
2017-05-26T10:19:12.753Z,18.65
2017-05-26T10:21:41.015Z,20.67
2017-05-26T10:24:08.588Z,20.03
2017-05-26T10:26:36.144Z,21.43
2017-05-26T10:29:03.692Z,20.03
2017-05-26T10:31:31.264Z,17.23
2017-05-26T10:33:58.771Z,16.35
2017-05-26T10:36:27.056Z,15.75
2017-05-26T10:38:54.853Z,15.82
2017-05-26T10:41:22.381Z,14.40
2017-05-26T10:43:50.767Z,16.37
2017-05-26T10:46:19.161Z,13.08
2017-05-26T10:48:46.739Z,12.68
2017-05-26T10:51:15.271Z,11.87
2017-05-26T10:53:42.834Z,11.13
2017-05-26T10:56:11.104Z,12.97
2017-05-26T10:58:39.432Z,12.10
2017-05-26T11:01:06.960Z,13.03
2017-05-26T11:03:35.261Z,11.60
2017-05-26T11:06:02.795Z,10.95
2017-05-26T11:08:31.182Z,11.57
2017-05-26T11:10:59.648Z,12.90
2017-05-26T11:13:27.156Z,10.63
2017-05-26T11:15:55.483Z,10.52
2017-05-26T11:18:23.067Z,10.05
2017-05-26T11:20:50.699Z,11.02
2017-05-26T11:23:18.252Z,10.77
2017-05-26T11:25:45.863Z,11.65
2017-05-26T11:28:13.415Z,11.63
2017-05-26T11:30:41.707Z,10.12
2017-05-26T11:33:09.258Z,8.62
2017-05-26T11:35:37.581Z,9.05
2017-05-26T11:38:05.118Z,10.28
2017-05-26T11:40:33.436Z,9.75
2017-05-26T11:43:01.379Z,10.80
2017-05-26T11:45:28.935Z,9.62
2017-05-26T11:47:56.444Z,9.73
2017-05-26T11:50:24.232Z,10.35
2017-05-26T11:52:51.775Z,10.72
2017-05-26T11:55:19.345Z,11.22
2017-05-26T11:57:46.876Z,11.08
2017-05-26T12:00:14.668Z,10.58
2017-05-26T12:02:42.980Z,10.97
2017-05-26T12:05:10.515Z,11.75
2017-05-26T12:07:38.092Z,11.82
2017-05-26T12:10:05.947Z,13.00
2017-05-26T12:12:33.493Z,11.93
2017-05-26T12:15:01.000Z,13.63
2017-05-26T12:17:28.531Z,12.93
2017-05-26T12:19:56.061Z,11.45
2017-05-26T12:22:24.328Z,12.42
2017-05-26T12:24:52.903Z,11.18
2017-05-26T12:27:20.767Z,11.28
2017-05-26T12:29:49.091Z,11.72
2017-05-26T12:32:16.916Z,10.65
2017-05-26T12:34:45.488Z,12.50
2017-05-26T12:37:13.019Z,13.78
2017-05-26T12:39:40.655Z,13.68
2017-05-26T12:42:08.241Z,12.23
2017-05-26T12:44:35.764Z,10.67
2017-05-26T12:47:04.404Z,10.75
2017-05-26T12:49:32.700Z,10.78
2017-05-26T12:52:01.060Z,12.30
2017-05-26T12:54:29.636Z,11.22
2017-05-26T12:56:57.980Z,10.02
2017-05-26T12:59:26.313Z,8.18
2017-05-26T13:01:54.580Z,8.37
2017-05-26T13:04:22.889Z,8.75
2017-05-26T13:06:51.328Z,8.07
2017-05-26T13:09:18.903Z,7.97
2017-05-26T13:11:46.448Z,6.75
2017-05-26T13:14:14.737Z,7.50
2017-05-26T13:16:43.585Z,8.60
2017-05-26T13:19:11.933Z,8.67
2017-05-26T13:21:39.483Z,8.22
2017-05-26T13:24:07.043Z,7.53
2017-05-26T13:26:35.332Z,7.50
2017-05-26T13:29:03.620Z,6.80
2017-05-26T13:31:31.123Z,6.02
2017-05-26T13:33:58.720Z,6.35
2017-05-26T13:36:26.240Z,6.80
2017-05-26T13:38:53.815Z,7.35
2017-05-26T13:41:22.103Z,6.77
2017-05-26T13:43:50.621Z,5.72
2017-05-26T13:46:18.932Z,4.50
2017-05-26T13:48:47.249Z,4.25
2017-05-26T13:51:14.776Z,4.22
2017-05-26T13:53:42.316Z,4.50
2017-05-26T13:56:10.862Z,3.83
2017-05-26T13:58:39.174Z,3.40
2017-05-26T14:01:07.473Z,3.58
2017-05-26T14:03:35.076Z,3.28
2017-05-26T14:06:03.351Z,3.13
2017-05-26T14:08:30.936Z,3.47
2017-05-26T14:10:58.448Z,3.42
2017-05-26T14:13:26.936Z,3.72
2017-05-26T14:15:55.531Z,4.17
2017-05-26T14:18:23.080Z,3.50
2017-05-26T14:20:50.633Z,3.73
2017-05-26T14:23:18.943Z,3.60
2017-05-26T14:25:46.511Z,4.25
2017-05-26T14:28:14.771Z,3.68
2017-05-26T14:30:42.272Z,3.95
2017-05-26T14:33:09.787Z,3.90
2017-05-26T14:35:37.345Z,4.00
2017-05-26T14:38:05.173Z,3.55
2017-05-26T14:40:32.725Z,4.70
2017-05-26T14:43:01.084Z,3.90
2017-05-26T14:45:28.628Z,5.10
2017-05-26T14:47:56.205Z,5.45
2017-05-26T14:50:23.795Z,5.17
2017-05-26T14:52:52.060Z,4.33
2017-05-26T14:55:19.612Z,4.62
2017-05-26T14:57:47.159Z,3.97
2017-05-26T15:00:14.676Z,3.98
2017-05-26T15:02:42.232Z,3.72
2017-05-26T15:05:09.793Z,4.38
2017-05-26T15:07:38.071Z,5.40
2017-05-26T15:10:05.568Z,5.28
2017-05-26T15:12:33.067Z,3.92
2017-05-26T15:15:00.589Z,4.40
2017-05-26T15:17:28.851Z,4.73
2017-05-26T15:19:57.159Z,5.90
2017-05-26T15:22:24.675Z,4.63
2017-05-26T15:24:52.230Z,4.32
2017-05-26T15:27:19.807Z,5.40
2017-05-26T15:29:48.384Z,4.47
2017-05-26T15:32:16.800Z,5.52
2017-05-26T15:34:44.297Z,5.35
2017-05-26T15:37:12.087Z,4.90
2017-05-26T15:39:40.664Z,4.62
2017-05-26T15:42:08.992Z,5.50
2017-05-26T15:44:36.612Z,4.22
2017-05-26T15:47:04.107Z,3.87
2017-05-26T15:49:32.439Z,4.20
2017-05-26T15:51:59.959Z,5.12
2017-05-26T15:54:28.220Z,5.05
2017-05-26T15:56:56.184Z,4.33
2017-05-26T15:59:24.707Z,4.52
2017-05-26T16:01:53.015Z,4.63
2017-05-26T16:04:21.303Z,4.98
2017-05-26T16:06:48.828Z,5.37
2017-05-26T16:09:17.139Z,4.32
2017-05-26T16:11:44.647Z,4.72
2017-05-26T16:14:12.516Z,4.60
2017-05-26T16:16:40.814Z,4.83
2017-05-26T16:19:08.357Z,4.90
2017-05-26T16:21:35.884Z,4.55
2017-05-26T16:24:03.408Z,5.00
2017-05-26T16:26:30.965Z,4.22
2017-05-26T16:28:59.224Z,3.43
2017-05-26T16:31:27.056Z,3.80
2017-05-26T16:33:54.564Z,3.38
2017-05-26T16:36:22.383Z,3.58
2017-05-26T16:38:49.949Z,3.58
2017-05-26T16:41:17.473Z,3.63
2017-05-26T16:43:45.037Z,3.75
2017-05-26T16:46:12.808Z,4.72
2017-05-26T16:48:40.336Z,4.55
2017-05-26T16:51:08.127Z,4.28
2017-05-26T16:53:35.732Z,3.75
2017-05-26T16:56:03.243Z,3.50
2017-05-26T16:58:30.804Z,4.42
2017-05-26T17:00:58.320Z,4.28
2017-05-26T17:03:25.843Z,4.17
2017-05-26T17:05:53.441Z,4.23
2017-05-26T17:08:21.732Z,5.55
2017-05-26T17:10:50.137Z,4.98
2017-05-26T17:13:18.443Z,4.45
2017-05-26T17:15:46.259Z,4.68
2017-05-26T17:18:13.781Z,5.05
2017-05-26T17:20:41.283Z,4.53
2017-05-26T17:23:08.856Z,4.68
2017-05-26T17:25:36.360Z,4.57
2017-05-26T17:28:04.671Z,4.23
2017-05-26T17:30:32.984Z,5.17
2017-05-26T17:33:01.248Z,4.68
2017-05-26T17:35:29.134Z,5.22
2017-05-26T17:37:57.419Z,4.87
2017-05-26T17:40:24.927Z,4.38
2017-05-26T17:42:53.245Z,5.10
2017-05-26T17:45:20.792Z,4.98
2017-05-26T17:47:49.058Z,4.60
2017-05-26T17:50:17.334Z,5.93
2017-05-26T17:52:44.847Z,6.13
2017-05-26T17:55:13.104Z,5.70
2017-05-26T17:57:41.389Z,5.48
2017-05-26T18:00:08.887Z,5.23
2017-05-26T18:02:36.774Z,4.53
2017-05-26T18:05:04.341Z,4.77
2017-05-26T18:07:31.839Z,4.32
2017-05-26T18:09:59.359Z,3.98
2017-05-26T18:12:28.145Z,4.72
2017-05-26T18:14:55.660Z,5.13
2017-05-26T18:17:23.923Z,5.22
2017-05-26T18:19:52.305Z,6.08
2017-05-26T18:22:19.867Z,6.17
2017-05-26T18:24:48.212Z,5.23
2017-05-26T18:27:16.492Z,5.73
2017-05-26T18:29:44.082Z,6.38
2017-05-26T18:32:11.596Z,5.52
2017-05-26T18:34:39.866Z,5.70
2017-05-26T18:37:07.400Z,4.98
2017-05-26T18:39:35.665Z,5.63
2017-05-26T18:42:03.955Z,4.97
2017-05-26T18:44:32.564Z,5.45
2017-05-26T18:47:00.888Z,5.18
2017-05-26T18:49:29.195Z,5.45
2017-05-26T18:51:56.984Z,5.88
2017-05-26T18:54:24.556Z,6.23
2017-05-26T18:56:52.051Z,5.38
2017-05-26T18:59:19.856Z,5.42
2017-05-26T19:01:47.401Z,5.73
2017-05-26T19:04:15.665Z,5.48
2017-05-26T19:06:43.952Z,6.10
2017-05-26T19:09:11.487Z,6.30
2017-05-26T19:11:39.094Z,5.73
2017-05-26T19:14:07.404Z,5.90
2017-05-26T19:16:34.900Z,5.75
2017-05-26T19:19:03.230Z,5.42
2017-05-26T19:21:30.731Z,5.30
2017-05-26T19:23:59.337Z,5.82
2017-05-26T19:26:27.904Z,5.97
2017-05-26T19:28:56.221Z,5.98
2017-05-26T19:31:24.487Z,5.78
2017-05-26T19:33:51.987Z,6.02
2017-05-26T19:36:19.533Z,6.63
2017-05-26T19:38:47.072Z,5.78
2017-05-26T19:41:15.651Z,5.82
2017-05-26T19:43:43.213Z,6.15
2017-05-26T19:46:10.763Z,5.92
2017-05-26T19:48:38.356Z,5.83
2017-05-26T19:51:05.860Z,6.35
2017-05-26T19:53:33.729Z,5.50
2017-05-26T19:56:02.077Z,5.88
2017-05-26T19:58:29.619Z,6.33
2017-05-26T20:00:57.112Z,8.10
2017-05-26T20:03:24.957Z,9.05
2017-05-26T20:05:53.311Z,10.52
2017-05-26T20:08:21.616Z,10.20
2017-05-26T20:10:49.201Z,10.48
2017-05-26T20:13:17.463Z,8.67
2017-05-26T20:15:45.794Z,8.77
2017-05-26T20:18:13.323Z,8.48
2017-05-26T20:20:41.852Z,8.95
2017-05-26T20:23:10.135Z,7.47
2017-05-26T20:25:38.394Z,7.37
2017-05-26T20:28:05.959Z,7.45
2017-05-26T20:30:34.578Z,6.85
2017-05-26T20:33:02.859Z,7.30
2017-05-26T20:35:30.361Z,6.88
2017-05-26T20:37:57.925Z,7.38
2017-05-26T20:40:25.796Z,7.65
2017-05-26T20:42:54.110Z,8.38
2017-05-26T20:45:21.964Z,8.40
2017-05-26T20:47:49.459Z,8.55
2017-05-26T20:50:16.980Z,9.35
2017-05-26T20:52:44.492Z,10.08
2017-05-26T20:55:12.046Z,10.57
2017-05-26T20:57:39.829Z,10.73
2017-05-26T21:00:07.689Z,9.95
2017-05-26T21:02:36.051Z,8.85
2017-05-26T21:05:03.552Z,9.38
2017-05-26T21:07:31.072Z,8.73
2017-05-26T21:09:58.616Z,10.12
2017-05-26T21:12:26.499Z,8.50
2017-05-26T21:14:54.800Z,8.78
2017-05-26T21:17:23.064Z,8.67
2017-05-26T21:19:51.379Z,10.43
2017-05-26T21:22:18.927Z,11.42
2017-05-26T21:24:46.748Z,15.22
2017-05-26T21:27:15.017Z,14.73
2017-05-26T21:29:42.592Z,15.28
2017-05-26T21:32:10.895Z,16.37
2017-05-26T21:34:38.395Z,15.90
2017-05-26T21:37:05.919Z,16.72
2017-05-26T21:39:34.195Z,14.08
2017-05-26T21:42:01.724Z,17.47
2017-05-26T21:44:29.995Z,15.63
2017-05-26T21:46:57.768Z,16.33
2017-05-26T21:49:25.277Z,16.03
2017-05-26T21:51:52.779Z,17.25
2017-05-26T21:54:21.328Z,17.17
2017-05-26T21:56:49.092Z,17.43
2017-05-26T21:59:16.616Z,17.42
2017-05-26T22:01:44.888Z,17.72
2017-05-26T22:04:12.451Z,16.70
2017-05-26T22:06:40.760Z,16.68
2017-05-26T22:09:08.268Z,16.48
2017-05-26T22:11:36.556Z,17.80
2017-05-26T22:14:04.832Z,17.68
2017-05-26T22:16:33.150Z,13.03
2017-05-26T22:19:01.717Z,13.10
2017-05-26T22:21:30.062Z,11.43
2017-05-26T22:23:58.376Z,11.70
2017-05-26T22:26:25.871Z,13.32
2017-05-26T22:28:54.232Z,12.60
2017-05-26T22:31:22.340Z,11.26
2017-05-26T22:33:50.039Z,12.22
2017-05-26T22:36:18.344Z,11.07
2017-05-26T22:38:46.642Z,12.70
2017-05-26T22:41:14.335Z,10.98
2017-05-26T22:43:41.898Z,11.73
2017-05-26T22:46:09.456Z,10.53
2017-05-26T22:48:37.034Z,9.27
2017-05-26T22:51:04.564Z,10.55
2017-05-26T22:53:32.137Z,9.68
2017-05-26T22:55:59.723Z,9.88
2017-05-26T22:58:27.991Z,10.52
2017-05-26T23:00:55.495Z,10.60
2017-05-26T23:03:23.822Z,10.53
2017-05-26T23:05:52.114Z,11.43
2017-05-26T23:08:19.639Z,11.27
2017-05-26T23:10:47.148Z,10.43
2017-05-26T23:13:14.725Z,11.05
2017-05-26T23:15:42.273Z,9.90
2017-05-26T23:18:09.780Z,10.08
2017-05-26T23:20:37.615Z,9.97
2017-05-26T23:23:05.883Z,10.27
2017-05-26T23:25:33.486Z,10.87
2017-05-26T23:28:01.787Z,11.37
2017-05-26T23:30:29.337Z,12.42
2017-05-26T23:32:57.607Z,12.15
2017-05-26T23:35:25.951Z,11.87
2017-05-26T23:37:53.550Z,10.73
2017-05-26T23:40:21.824Z,11.88
2017-05-26T23:42:50.115Z,11.95
2017-05-26T23:45:17.620Z,10.77
2017-05-26T23:47:45.201Z,11.80
2017-05-26T23:50:13.532Z,12.23
2017-05-26T23:52:41.807Z,10.90
2017-05-26T23:55:10.388Z,11.82
2017-05-26T23:57:38.148Z,10.82
